Impacts METAR Board
IDs:

KISM - Kissimmee Muni, FL, US

Updated at: 1000 UTC 18 Jan 2022
Potential Impact None Slight Moderate High
Time 17/22Z 17/23Z 18/00Z 18/01Z 18/02Z 18/03Z 18/04Z 18/05Z 18/06Z 18/07Z 18/08Z 18/09Z 18/10Z
Temp61 57 55 52 51 50 49 46 45 44 45 47 45
Dewpt43 44 44 44 45 45 45 43 43 42 43 42 37
Altim29.98 30.01 30.02 30.05 30.08 30.09 30.11 30.11 30.11 30.11 30.11 30.12 30.14
VIS10 10 10 10 10 10 10 10 10 10 10 10 10
CIG-- -- -- -- -- -- -- -- -- -- -- -- --
CoverCLRCLRCLRCLRCLRCLRCLRCLRCLRCLRCLRCLRCLR
FltCatVFRVFRVFRVFRVFRVFRVFRVFRVFRVFRVFRVFRVFR
WX--------------------------
WDir280290280290290290310000330360360
WSpd12 10 6 4 5 5 3 0 0 0 5 5 9
WGst-- -- -- -- -- -- -- -- -- -- -- -- --
Raw hourly METARs
KISM 172156Z 28012KT 10SM CLR 16/06 A2998 RMK AO2 SLP152 T01610061 PNO $
KISM 172256Z 29010KT 10SM CLR 14/07 A3001 RMK AO2 SLP161 T01390067 PNO $
KISM 172356Z 28006KT 10SM CLR 13/07 A3002 RMK AO2 SLP166 6//// T01280067 10167 20128 53016 PNO $
KISM 180056Z 29004KT 10SM CLR 11/07 A3005 RMK AO2 SLP177 T01110067 PNO $
KISM 180156Z 29005KT 10SM CLR 11/07 A3008 RMK AO2 SLP185 T01060072 PNO $
KISM 180256Z AUTO 29005KT 10SM CLR 10/07 A3009 RMK AO2 SLP190 6//// T01000072 51023 PNO $
KISM 180356Z AUTO 31003KT 10SM CLR 09/07 A3011 RMK AO2 SLP196 T00940072 PNO $
KISM 180456Z AUTO 00000KT 10SM CLR 08/06 A3011 RMK AO2 SLP198 T00780061 401670078 PNO $
KISM 180556Z AUTO 00000KT 10SM CLR 07/06 A3011 RMK AO2 SLP198 6//// T00720061 10128 20072 51008 PNO $
KISM 180656Z AUTO 00000KT 10SM CLR 07/06 A3011 RMK AO2 SLP195 T00670056 PNO $
KISM 180756Z AUTO 33005KT 10SM CLR 07/06 A3011 RMK AO2 SLP195 T00720061 PNO $
KISM 180856Z AUTO 36005KT 10SM CLR 08/06 A3012 RMK AO2 SLP201 6//// T00830056 53003 PNO $
KISM 180956Z AUTO 36009KT 10SM CLR 07/03 A3014 RMK AO2 SLP208 T00720028 PNO $



Page loaded:  10:57 UTC  |   02:57 AM Pacific  |   03:57 AM Mountain  |   04:57 AM Central  |   05:57 AM Eastern

 

ADVISORIES

FORECASTS

FORECASTS

OBSERVATIONS

USER TOOLS

ABOUT US